createdAt,value
2019-03-31T00:01:24.130Z,7.80
2019-03-31T00:03:53.851Z,8.50
2019-03-31T00:06:23.594Z,8.17
2019-03-31T00:08:53.970Z,8.07
2019-03-31T00:11:23.723Z,8.47
2019-03-31T00:13:53.436Z,8.60
2019-03-31T00:16:23.626Z,9.30
2019-03-31T00:18:53.267Z,9.70
2019-03-31T00:21:23.012Z,8.53
2019-03-31T00:23:52.916Z,9.60
2019-03-31T00:26:22.679Z,9.70
2019-03-31T00:28:52.575Z,10.13
2019-03-31T00:31:22.826Z,11.03
2019-03-31T00:33:52.707Z,9.70
2019-03-31T00:36:22.549Z,10.33
2019-03-31T00:38:52.350Z,12.90
2019-03-31T00:41:22.506Z,13.43
2019-03-31T00:43:52.278Z,15.80
2019-03-31T00:46:22.119Z,16.73
2019-03-31T00:48:52.141Z,15.10
2019-03-31T00:51:21.979Z,14.83
2019-03-31T00:53:51.991Z,16.17
2019-03-31T00:56:21.655Z,12.80
2019-03-31T00:58:51.473Z,12.60
2019-03-31T01:01:43.632Z,11.63
2019-03-31T01:04:15.410Z,11.60
2019-03-31T01:06:48.087Z,11.40
2019-03-31T01:09:31.115Z,9.83
2019-03-31T01:12:12.205Z,9.43
2019-03-31T01:15:00.773Z,9.03
2019-03-31T01:20:49.211Z,9.17
2019-03-31T01:23:37.726Z,9.13
2019-03-31T01:26:26.288Z,8.77
2019-03-31T01:32:10.609Z,8.90
2019-03-31T01:34:40.874Z,8.10
2019-03-31T01:37:29.548Z,9.33
2019-03-31T01:40:18.025Z,8.70
2019-03-31T01:43:06.700Z,7.73
2019-03-31T01:45:55.362Z,8.90
2019-03-31T01:48:43.860Z,7.67
2019-03-31T01:51:32.341Z,8.40
2019-03-31T01:54:20.830Z,7.93
2019-03-31T01:56:50.732Z,8.63
2019-03-31T01:59:32.230Z,10.00
2019-03-31T02:02:17.406Z,9.30
2019-03-31T02:04:58.435Z,11.40
2019-03-31T02:07:39.119Z,9.90
2019-03-31T02:10:20.382Z,10.60
2019-03-31T02:13:00.925Z,9.87
2019-03-31T02:15:41.694Z,9.93
2019-03-31T02:18:22.501Z,11.27
2019-03-31T02:21:03.382Z,10.93
2019-03-31T02:23:44.115Z,11.23
2019-03-31T02:26:24.807Z,10.33
2019-03-31T02:29:05.509Z,8.90
2019-03-31T02:31:46.494Z,8.73
2019-03-31T02:34:27.394Z,8.47
2019-03-31T02:37:08.492Z,8.67
2019-03-31T02:39:52.370Z,8.80
2019-03-31T02:42:33.180Z,8.97
2019-03-31T02:45:14.371Z,10.60
2019-03-31T02:47:55.957Z,14.37
2019-03-31T02:50:37.478Z,13.00
2019-03-31T02:53:18.339Z,11.10
2019-03-31T02:55:58.919Z,9.93
2019-03-31T02:58:39.939Z,9.10
2019-03-31T03:01:49.015Z,10.13
2019-03-31T03:04:58.022Z,10.10
2019-03-31T03:08:07.062Z,8.70
2019-03-31T03:11:13.197Z,10.00
2019-03-31T03:14:12.571Z,9.63
2019-03-31T03:17:01.162Z,9.03
2019-03-31T03:19:31.108Z,8.80
2019-03-31T03:22:20.562Z,9.80
2019-03-31T03:25:09.173Z,9.83
2019-03-31T03:27:57.866Z,8.67
2019-03-31T03:30:46.464Z,9.60
2019-03-31T03:33:35.047Z,9.40
2019-03-31T03:36:23.553Z,8.60
2019-03-31T03:39:12.038Z,8.40
2019-03-31T03:42:00.523Z,8.87
2019-03-31T03:44:49.017Z,8.73
2019-03-31T03:47:37.564Z,9.63
2019-03-31T03:50:26.318Z,9.00
2019-03-31T03:53:07.451Z,8.43
2019-03-31T03:55:48.780Z,9.60
2019-03-31T03:58:18.426Z,8.53
2019-03-31T04:01:25.945Z,8.90
2019-03-31T04:04:14.439Z,7.70
2019-03-31T04:07:03.126Z,9.03
2019-03-31T04:09:52.164Z,8.57
2019-03-31T04:12:41.266Z,8.67
2019-03-31T04:15:29.977Z,8.67
2019-03-31T04:18:18.483Z,8.70
2019-03-31T04:21:07.239Z,9.00
2019-03-31T04:23:55.915Z,9.93
2019-03-31T04:26:44.466Z,9.60
2019-03-31T04:29:33.031Z,9.60
2019-03-31T04:32:21.598Z,9.03
2019-03-31T04:35:10.089Z,8.57
2019-03-31T04:37:58.563Z,10.77
2019-03-31T04:40:47.060Z,10.60
2019-03-31T04:43:35.957Z,10.53
2019-03-31T04:46:24.457Z,11.80
2019-03-31T04:49:12.955Z,10.60
2019-03-31T04:51:53.719Z,12.10
2019-03-31T04:54:34.187Z,11.40
2019-03-31T04:57:14.873Z,11.10
2019-03-31T04:59:55.786Z,10.20
2019-03-31T05:02:37.250Z,10.83
2019-03-31T05:05:18.617Z,10.57
2019-03-31T05:07:48.286Z,10.80
2019-03-31T05:10:37.129Z,11.20
2019-03-31T05:13:25.622Z,10.03
2019-03-31T05:16:14.102Z,10.90
2019-03-31T05:19:02.586Z,10.37
2019-03-31T05:21:51.051Z,10.00
2019-03-31T05:24:39.537Z,10.73
2019-03-31T05:27:28.006Z,10.60
2019-03-31T05:30:16.502Z,9.80
2019-03-31T05:32:57.543Z,9.90
2019-03-31T05:35:38.006Z,10.60
2019-03-31T05:38:18.711Z,10.03
2019-03-31T05:40:59.650Z,10.77
2019-03-31T05:43:41.023Z,11.10
2019-03-31T05:46:22.319Z,10.90
2019-03-31T05:49:03.524Z,11.63
2019-03-31T05:51:44.307Z,11.33
2019-03-31T05:54:25.733Z,11.07
2019-03-31T05:56:55.381Z,12.10
2019-03-31T05:59:25.061Z,10.57
2019-03-31T06:02:13.930Z,10.93
2019-03-31T06:05:02.498Z,9.87
2019-03-31T06:07:51.226Z,10.43
2019-03-31T06:10:32.519Z,10.77
2019-03-31T06:13:02.430Z,11.80
2019-03-31T06:15:51.179Z,10.80
2019-03-31T06:18:39.738Z,11.10
2019-03-31T06:21:29.335Z,12.33
2019-03-31T06:24:18.466Z,12.40
2019-03-31T06:27:06.933Z,12.00
2019-03-31T06:29:55.508Z,11.87
2019-03-31T06:32:43.966Z,13.17
2019-03-31T06:35:32.535Z,26.20
2019-03-31T06:38:21.266Z,17.67
2019-03-31T06:41:09.854Z,12.63
2019-03-31T06:47:00.817Z,13.97
2019-03-31T06:49:49.558Z,13.50
2019-03-31T06:52:38.281Z,11.60
2019-03-31T06:55:26.470Z,12.47
2019-03-31T06:58:14.946Z,12.70
2019-03-31T07:01:03.743Z,12.90
2019-03-31T07:03:52.515Z,12.37
2019-03-31T07:06:41.020Z,12.03
2019-03-31T07:09:22.079Z,11.67
2019-03-31T07:12:03.446Z,12.90
2019-03-31T07:14:44.414Z,11.30
2019-03-31T07:17:25.663Z,12.40
2019-03-31T07:20:07.021Z,11.93
2019-03-31T07:22:48.384Z,12.67
2019-03-31T07:25:29.214Z,11.03
2019-03-31T07:30:41.722Z,10.20
2019-03-31T07:33:11.723Z,11.03
2019-03-31T07:35:41.454Z,11.10
2019-03-31T07:38:11.105Z,10.57
2019-03-31T07:40:41.924Z,9.80
2019-03-31T07:43:12.070Z,9.80
2019-03-31T07:45:42.175Z,10.13
2019-03-31T07:48:13.009Z,11.07
2019-03-31T07:50:43.646Z,9.27
2019-03-31T07:53:13.290Z,9.50
2019-03-31T07:55:43.221Z,9.43
2019-03-31T07:58:12.981Z,9.30
2019-03-31T08:00:43.054Z,9.90
2019-03-31T08:03:12.735Z,9.07
2019-03-31T08:05:42.438Z,9.90
2019-03-31T08:08:12.611Z,11.80
2019-03-31T08:10:42.283Z,10.93
2019-03-31T08:13:12.197Z,10.70
2019-03-31T08:15:41.840Z,10.70
2019-03-31T08:18:11.502Z,10.20
2019-03-31T08:20:41.406Z,9.90
2019-03-31T08:23:11.051Z,11.27
2019-03-31T08:25:40.718Z,11.20
2019-03-31T08:28:11.564Z,10.93
2019-03-31T08:30:41.374Z,11.27
2019-03-31T08:33:11.027Z,9.43
2019-03-31T08:35:47.138Z,10.00
2019-03-31T08:38:12.134Z,10.00
2019-03-31T08:40:42.082Z,10.57
2019-03-31T08:43:11.743Z,10.37
2019-03-31T08:45:41.738Z,10.90
2019-03-31T08:48:13.127Z,11.50
2019-03-31T08:50:42.769Z,12.53
2019-03-31T08:53:12.405Z,10.77
2019-03-31T08:55:42.080Z,11.50
2019-03-31T08:58:12.124Z,10.27
2019-03-31T09:00:46.029Z,9.63
2019-03-31T09:03:15.946Z,11.27
2019-03-31T09:06:00.588Z,12.30
2019-03-31T09:08:18.982Z,12.07
2019-03-31T09:10:48.667Z,10.83
2019-03-31T09:13:18.752Z,11.37
2019-03-31T09:15:48.493Z,12.47
2019-03-31T09:18:18.389Z,12.50
2019-03-31T09:20:48.310Z,12.40
2019-03-31T09:23:17.977Z,13.47
2019-03-31T09:25:48.002Z,14.10
2019-03-31T09:28:17.747Z,13.80
2019-03-31T09:30:47.700Z,14.27
2019-03-31T09:33:17.399Z,13.70
2019-03-31T09:35:47.318Z,13.77
2019-03-31T09:38:17.333Z,14.20
2019-03-31T09:40:47.530Z,14.63
2019-03-31T09:43:17.198Z,14.63
2019-03-31T09:45:46.833Z,15.50
2019-03-31T09:48:16.505Z,13.87
2019-03-31T09:50:46.485Z,15.10
2019-03-31T09:53:16.147Z,13.40
2019-03-31T09:55:46.042Z,14.20
2019-03-31T09:58:15.974Z,14.27
2019-03-31T10:00:48.737Z,15.80
2019-03-31T10:05:41.035Z,13.80
2019-03-31T10:08:10.786Z,17.00
2019-03-31T10:10:40.429Z,16.50
2019-03-31T10:13:10.129Z,15.93
2019-03-31T10:15:40.038Z,16.70
2019-03-31T10:18:11.337Z,16.60
2019-03-31T10:20:40.979Z,15.83
2019-03-31T10:23:10.673Z,17.40
2019-03-31T10:25:40.334Z,16.37
2019-03-31T10:28:10.058Z,17.30
2019-03-31T10:30:40.208Z,16.10
2019-03-31T10:33:10.301Z,17.17
2019-03-31T10:35:39.925Z,18.47
2019-03-31T10:38:11.654Z,17.80
2019-03-31T10:40:41.725Z,17.23
2019-03-31T10:43:11.653Z,17.50
2019-03-31T10:45:41.307Z,18.40
2019-03-31T10:48:20.352Z,18.00
2019-03-31T10:50:43.182Z,18.50
2019-03-31T10:53:12.867Z,18.97
2019-03-31T10:55:42.522Z,18.60
2019-03-31T10:58:12.183Z,18.40
2019-03-31T11:00:44.513Z,16.47
2019-03-31T11:03:13.566Z,17.37
2019-03-31T11:05:43.218Z,16.57
2019-03-31T11:08:12.870Z,17.43
2019-03-31T11:10:42.602Z,16.83
2019-03-31T11:13:12.796Z,17.77
2019-03-31T11:15:42.434Z,18.17
2019-03-31T11:18:12.153Z,17.03
2019-03-31T11:20:41.816Z,19.00
2019-03-31T11:23:23.386Z,17.83
2019-03-31T11:25:53.338Z,16.67
2019-03-31T11:28:24.864Z,16.50
2019-03-31T11:30:57.435Z,17.30
2019-03-31T11:33:30.004Z,16.70
2019-03-31T11:35:59.959Z,17.67
2019-03-31T11:38:29.895Z,17.70
2019-03-31T11:40:59.561Z,17.60
2019-03-31T11:43:29.582Z,16.53
2019-03-31T11:45:59.249Z,17.87
2019-03-31T11:48:29.166Z,17.27
2019-03-31T11:51:00.420Z,17.43
2019-03-31T11:53:30.964Z,17.07
2019-03-31T11:56:00.665Z,17.93
2019-03-31T11:58:32.292Z,17.57
2019-03-31T12:01:01.934Z,17.30
2019-03-31T12:03:32.001Z,16.70
2019-03-31T12:06:01.659Z,16.00
2019-03-31T12:08:31.356Z,15.90
2019-03-31T12:11:01.070Z,15.90
2019-03-31T12:13:30.813Z,14.70
2019-03-31T12:16:00.490Z,13.43
2019-03-31T12:18:30.530Z,14.97
2019-03-31T12:21:00.177Z,15.97
2019-03-31T12:23:29.866Z,14.23
2019-03-31T12:26:00.446Z,13.23
2019-03-31T12:28:30.578Z,13.50
2019-03-31T12:31:00.664Z,12.43
2019-03-31T12:33:30.670Z,14.83
2019-03-31T12:36:00.322Z,14.60
2019-03-31T12:38:30.079Z,14.77
2019-03-31T12:41:00.134Z,13.53
2019-03-31T12:43:30.611Z,10.70
2019-03-31T12:46:00.617Z,8.90
2019-03-31T12:48:39.528Z,10.40
2019-03-31T12:51:09.280Z,12.73
2019-03-31T12:53:39.037Z,11.03
2019-03-31T12:56:09.027Z,12.10
2019-03-31T12:58:39.009Z,11.93
2019-03-31T13:01:09.077Z,11.57
2019-03-31T13:03:39.469Z,11.13
2019-03-31T13:06:09.198Z,11.90
2019-03-31T13:08:39.137Z,11.97
2019-03-31T13:11:10.450Z,12.40
2019-03-31T13:13:40.393Z,11.17
2019-03-31T13:16:11.447Z,10.73
2019-03-31T13:18:41.542Z,9.43
2019-03-31T13:21:11.970Z,13.70
2019-03-31T13:23:41.687Z,15.30
2019-03-31T13:26:12.018Z,15.17
2019-03-31T13:29:19.461Z,15.83
2019-03-31T13:32:08.034Z,14.10
2019-03-31T13:34:56.562Z,12.53
2019-03-31T13:37:45.058Z,14.43
2019-03-31T13:40:26.571Z,11.13
2019-03-31T13:45:51.017Z,11.43
2019-03-31T13:48:31.948Z,12.07
2019-03-31T13:51:12.714Z,17.30
2019-03-31T13:53:54.099Z,15.87
2019-03-31T13:59:18.073Z,15.63
2019-03-31T14:02:00.303Z,14.00
2019-03-31T14:04:51.325Z,11.80
2019-03-31T14:07:24.102Z,13.53
2019-03-31T14:10:04.810Z,14.40
2019-03-31T14:12:45.554Z,15.10
2019-03-31T14:15:27.027Z,13.10
2019-03-31T14:17:56.839Z,13.30
2019-03-31T14:20:45.759Z,16.73
2019-03-31T14:23:34.596Z,12.07
2019-03-31T14:26:23.443Z,12.23
2019-03-31T14:29:11.935Z,12.50
2019-03-31T14:32:00.462Z,12.27
2019-03-31T14:34:49.054Z,13.33
2019-03-31T14:37:39.936Z,14.00
2019-03-31T14:40:28.441Z,12.40
2019-03-31T14:43:17.196Z,11.70
2019-03-31T14:46:05.962Z,13.23
2019-03-31T14:48:54.754Z,12.17
2019-03-31T14:51:43.645Z,13.47
2019-03-31T14:54:32.475Z,13.07
2019-03-31T14:57:13.514Z,12.40
2019-03-31T14:59:54.403Z,15.80
2019-03-31T15:05:17.147Z,16.17
2019-03-31T15:10:40.762Z,29.20
2019-03-31T15:16:04.459Z,26.33
2019-03-31T15:21:27.909Z,30.60
2019-03-31T15:24:08.701Z,32.87
2019-03-31T15:26:49.547Z,32.60
2019-03-31T15:32:12.918Z,35.73
2019-03-31T15:34:53.623Z,37.07
2019-03-31T15:40:17.678Z,38.13
2019-03-31T15:42:58.618Z,36.87
2019-03-31T15:45:40.163Z,35.23
2019-03-31T15:48:10.411Z,39.17
2019-03-31T15:51:00.307Z,39.00
2019-03-31T15:53:48.770Z,39.43
2019-03-31T15:56:37.324Z,41.43
2019-03-31T15:59:25.791Z,37.77
2019-03-31T16:02:14.291Z,38.87
2019-03-31T16:05:02.846Z,37.40
2019-03-31T16:07:51.083Z,35.47
2019-03-31T16:10:39.631Z,37.93
2019-03-31T16:13:27.874Z,36.30
2019-03-31T16:16:16.110Z,35.40
2019-03-31T16:19:04.299Z,36.67
2019-03-31T16:21:52.553Z,38.30
2019-03-31T16:24:43.623Z,34.53
2019-03-31T16:27:31.945Z,36.40
2019-03-31T16:30:20.225Z,32.97
2019-03-31T16:33:08.552Z,32.23
2019-03-31T16:35:56.791Z,32.70
2019-03-31T16:38:44.999Z,34.10
2019-03-31T16:41:33.232Z,33.23
2019-03-31T16:44:21.484Z,30.80
2019-03-31T16:47:09.743Z,29.37
2019-03-31T16:49:57.989Z,29.70
2019-03-31T16:52:46.562Z,28.73
2019-03-31T16:55:34.778Z,27.60
2019-03-31T16:58:23.243Z,28.93
2019-03-31T17:01:11.784Z,26.87
2019-03-31T17:04:00.034Z,24.80
2019-03-31T17:06:48.536Z,25.23
2019-03-31T17:09:50.677Z,23.70
2019-03-31T17:12:27.208Z,22.80
2019-03-31T17:15:08.074Z,25.73
2019-03-31T17:20:32.416Z,22.53
2019-03-31T17:25:55.279Z,19.67
2019-03-31T17:31:18.828Z,21.17
2019-03-31T17:36:42.386Z,19.67
2019-03-31T17:39:24.789Z,19.33
2019-03-31T17:42:06.334Z,18.70
2019-03-31T17:47:30.076Z,17.83
2019-03-31T17:53:05.738Z,16.77
2019-03-31T17:55:59.256Z,16.40
2019-03-31T18:01:44.567Z,16.60
2019-03-31T18:04:34.282Z,15.90
2019-03-31T18:07:23.112Z,14.70
2019-03-31T18:10:20.880Z,14.50
2019-03-31T18:13:01.647Z,14.80
2019-03-31T18:15:49.870Z,14.87
2019-03-31T18:18:38.759Z,15.53
2019-03-31T18:21:27.452Z,15.60
2019-03-31T18:24:16.927Z,15.30
2019-03-31T18:27:05.168Z,14.33
2019-03-31T18:29:53.383Z,15.03
2019-03-31T18:32:34.163Z,15.77
2019-03-31T18:35:16.980Z,13.43
2019-03-31T18:37:57.957Z,15.00
2019-03-31T18:40:39.291Z,17.53
2019-03-31T18:43:20.444Z,14.50
2019-03-31T18:46:01.314Z,14.83
2019-03-31T18:48:42.119Z,15.47
2019-03-31T18:51:23.200Z,23.90
2019-03-31T19:00:32.471Z,13.03
2019-03-31T19:03:20.949Z,13.50
2019-03-31T19:06:28.218Z,13.33
2019-03-31T19:09:38.521Z,12.67
2019-03-31T19:12:41.352Z,12.37
2019-03-31T19:15:48.632Z,12.37
2019-03-31T19:21:39.266Z,12.60
2019-03-31T19:24:47.406Z,12.23
2019-03-31T19:27:54.737Z,12.30
2019-03-31T19:31:02.310Z,12.07
2019-03-31T19:33:51.297Z,11.00
2019-03-31T19:36:58.582Z,11.97
2019-03-31T19:40:02.083Z,12.30
2019-03-31T19:42:59.758Z,11.33
2019-03-31T19:45:54.981Z,9.77
2019-03-31T19:48:45.985Z,11.20
2019-03-31T19:51:40.378Z,9.47
2019-03-31T19:54:21.269Z,10.93
2019-03-31T19:57:15.814Z,10.80
2019-03-31T19:59:55.577Z,10.17
2019-03-31T20:02:42.220Z,17.80
2019-03-31T20:05:25.823Z,15.70
2019-03-31T20:08:17.914Z,15.43
2019-03-31T20:11:09.437Z,10.13
2019-03-31T20:13:55.094Z,10.37
2019-03-31T20:16:46.566Z,10.07
2019-03-31T20:19:43.754Z,9.90
2019-03-31T20:22:34.833Z,10.87
2019-03-31T20:25:18.133Z,10.70
2019-03-31T20:28:12.347Z,10.70
2019-03-31T20:30:58.015Z,9.10
2019-03-31T20:33:35.306Z,10.67
2019-03-31T20:36:23.379Z,10.57
2019-03-31T20:39:10.239Z,9.93
2019-03-31T20:41:53.768Z,9.83
2019-03-31T20:44:22.892Z,10.40
2019-03-31T20:46:52.006Z,9.37
2019-03-31T20:49:21.140Z,9.53
2019-03-31T20:51:50.239Z,10.60
2019-03-31T20:54:19.438Z,9.60
2019-03-31T20:56:48.533Z,11.13
2019-03-31T20:59:17.670Z,12.27
2019-03-31T21:01:46.766Z,11.10
2019-03-31T21:04:15.980Z,10.43
2019-03-31T21:06:45.242Z,11.50
2019-03-31T21:09:14.482Z,10.27
2019-03-31T21:11:43.603Z,10.60
2019-03-31T21:14:22.226Z,10.63
2019-03-31T21:16:57.748Z,11.00
2019-03-31T21:19:26.928Z,10.90
2019-03-31T21:21:56.097Z,11.43
2019-03-31T21:24:25.208Z,10.70
2019-03-31T21:27:01.219Z,11.13
2019-03-31T21:29:30.798Z,10.47
2019-03-31T21:31:59.895Z,10.53
2019-03-31T21:34:29.322Z,10.57
2019-03-31T21:36:58.409Z,10.30
2019-03-31T21:39:27.821Z,9.83
2019-03-31T21:41:57.216Z,9.90
2019-03-31T21:44:26.579Z,10.13
2019-03-31T21:46:56.061Z,10.30
2019-03-31T21:49:25.284Z,9.77
2019-03-31T21:51:54.362Z,10.13
2019-03-31T21:54:23.486Z,10.83
2019-03-31T21:56:52.658Z,9.50
2019-03-31T21:59:21.781Z,10.30
2019-03-31T22:01:50.973Z,9.93
2019-03-31T22:04:20.079Z,11.93
2019-03-31T22:06:49.793Z,10.60
2019-03-31T22:09:19.176Z,9.30
2019-03-31T22:11:48.269Z,10.13
2019-03-31T22:14:17.911Z,9.30
2019-03-31T22:16:47.026Z,9.97
2019-03-31T22:19:16.198Z,9.47
2019-03-31T22:21:45.292Z,10.73
2019-03-31T22:24:14.411Z,9.20
2019-03-31T22:26:43.501Z,9.37
2019-03-31T22:29:12.614Z,9.83
2019-03-31T22:31:41.934Z,9.73
2019-03-31T22:34:11.058Z,10.53
2019-03-31T22:36:40.422Z,8.60
2019-03-31T22:39:09.543Z,10.40
2019-03-31T22:41:38.906Z,10.10
2019-03-31T22:44:08.052Z,10.90
2019-03-31T22:46:37.416Z,9.10
2019-03-31T22:49:06.539Z,12.37
2019-03-31T22:51:35.898Z,10.20
2019-03-31T22:54:05.287Z,10.97
2019-03-31T22:56:34.466Z,11.10
2019-03-31T22:59:03.604Z,12.37
2019-03-31T23:01:32.904Z,11.00
2019-03-31T23:04:02.137Z,10.87
2019-03-31T23:06:31.250Z,10.67
2019-03-31T23:09:00.658Z,12.13
2019-03-31T23:11:29.769Z,11.20
2019-03-31T23:13:58.890Z,10.73
2019-03-31T23:16:28.067Z,10.90
2019-03-31T23:18:57.166Z,11.93
2019-03-31T23:21:26.567Z,12.27
2019-03-31T23:23:55.662Z,11.67
2019-03-31T23:26:25.039Z,11.40
2019-03-31T23:28:54.679Z,11.30
2019-03-31T23:31:23.810Z,11.80
2019-03-31T23:33:53.233Z,11.70
2019-03-31T23:36:22.536Z,11.63
2019-03-31T23:38:51.687Z,12.53
2019-03-31T23:41:20.827Z,12.20
2019-03-31T23:43:50.025Z,11.63
2019-03-31T23:46:19.962Z,12.80
2019-03-31T23:48:49.127Z,12.50
2019-03-31T23:51:19.197Z,12.67
2019-03-31T23:53:48.599Z,11.50
2019-03-31T23:56:17.724Z,14.40
2019-03-31T23:58:46.819Z,12.53
